createdAt,value
2019-05-29T00:01:36.604Z,14.21
2019-05-29T00:04:10.816Z,14.22
2019-05-29T00:06:44.085Z,14.17
2019-05-29T00:09:18.452Z,14.19
2019-05-29T00:11:52.836Z,14.18
2019-05-29T00:14:27.608Z,14.16
2019-05-29T00:17:01.613Z,14.12
2019-05-29T00:19:33.011Z,14.14
2019-05-29T00:22:08.865Z,14.12
2019-05-29T00:24:43.409Z,14.14
2019-05-29T00:27:15.621Z,14.15
2019-05-29T00:29:52.107Z,14.16
2019-05-29T00:32:26.953Z,14.13
2019-05-29T00:35:00.188Z,14.18
2019-05-29T00:37:32.149Z,14.18
2019-05-29T00:40:05.173Z,14.10
2019-05-29T00:42:39.963Z,14.15
2019-05-29T00:45:13.428Z,13.84
2019-05-29T00:48:07.610Z,14.07
2019-05-29T00:50:42.113Z,14.09
2019-05-29T00:53:18.443Z,14.04
2019-05-29T00:55:59.268Z,14.08
2019-05-29T00:58:34.587Z,14.01
2019-05-29T01:01:11.362Z,14.03
2019-05-29T01:03:45.144Z,14.01
2019-05-29T01:06:20.260Z,13.98
2019-05-29T01:08:55.993Z,13.98
2019-05-29T01:11:29.319Z,14.01
2019-05-29T01:14:05.450Z,14.06
2019-05-29T01:16:38.399Z,14.02
2019-05-29T01:19:26.436Z,14.01
2019-05-29T01:22:00.057Z,13.99
2019-05-29T01:24:34.402Z,13.98
2019-05-29T01:27:10.092Z,14.03
2019-05-29T01:29:41.475Z,14.00
2019-05-29T01:32:19.607Z,14.00
2019-05-29T01:34:54.217Z,13.99
2019-05-29T01:37:26.528Z,14.04
2019-05-29T01:39:59.804Z,13.94
2019-05-29T01:42:33.585Z,13.93
2019-05-29T01:45:08.784Z,13.88
2019-05-29T01:47:41.489Z,13.88
2019-05-29T01:50:34.490Z,13.86
2019-05-29T01:53:08.413Z,13.86
2019-05-29T01:55:49.108Z,13.88
2019-05-29T01:58:21.894Z,13.87
2019-05-29T02:00:55.421Z,13.78
2019-05-29T02:03:43.765Z,13.78
2019-05-29T02:06:19.995Z,13.73
2019-05-29T02:08:53.676Z,13.69
2019-05-29T02:11:25.881Z,13.66
2019-05-29T02:13:59.546Z,13.55
2019-05-29T02:16:32.659Z,13.55
2019-05-29T02:19:06.113Z,13.53
2019-05-29T02:21:38.941Z,13.47
2019-05-29T02:24:11.618Z,13.49
2019-05-29T02:26:45.748Z,13.49
2019-05-29T02:29:22.894Z,13.39
2019-05-29T02:31:56.897Z,13.31
2019-05-29T02:34:29.961Z,13.28
2019-05-29T02:37:01.772Z,13.42
2019-05-29T02:39:35.043Z,13.42
2019-05-29T02:42:07.752Z,13.31
2019-05-29T02:44:41.022Z,13.25
2019-05-29T02:47:13.716Z,13.35
2019-05-29T02:49:49.611Z,13.21
2019-05-29T02:52:26.332Z,13.32
2019-05-29T02:54:58.751Z,13.23
2019-05-29T02:57:31.822Z,13.26
2019-05-29T03:00:05.393Z,13.33
2019-05-29T03:02:38.004Z,13.27
2019-05-29T03:05:11.755Z,13.26
2019-05-29T03:07:55.413Z,13.29
2019-05-29T03:10:36.541Z,13.27
2019-05-29T03:13:08.782Z,13.26
2019-05-29T03:16:08.739Z,13.28
2019-05-29T03:18:28.141Z,13.33
2019-05-29T03:21:01.208Z,13.25
2019-05-29T03:23:36.498Z,13.27
2019-05-29T03:26:30.318Z,13.18
2019-05-29T03:29:02.011Z,13.33
2019-05-29T03:31:46.625Z,13.21
2019-05-29T03:34:16.941Z,13.25
2019-05-29T03:36:53.962Z,13.25
2019-05-29T03:39:26.442Z,13.38
2019-05-29T03:42:00.619Z,13.39
2019-05-29T03:44:35.438Z,13.37
2019-05-29T03:47:11.907Z,13.43
2019-05-29T03:49:44.768Z,13.36
2019-05-29T03:52:17.246Z,13.40
2019-05-29T03:54:49.127Z,13.38
2019-05-29T03:57:23.038Z,13.37
2019-05-29T03:59:55.125Z,13.38
2019-05-29T04:02:28.560Z,13.42
2019-05-29T04:05:04.153Z,13.42
2019-05-29T04:07:40.381Z,13.37
2019-05-29T04:10:49.846Z,13.35
2019-05-29T04:13:34.101Z,13.41
2019-05-29T04:16:08.325Z,13.34
2019-05-29T04:18:42.585Z,13.45
2019-05-29T04:21:18.006Z,13.44
2019-05-29T04:23:55.239Z,13.34
2019-05-29T04:26:27.924Z,13.32
2019-05-29T04:29:11.127Z,13.32
2019-05-29T04:31:44.416Z,13.16
2019-05-29T04:34:18.109Z,13.24
2019-05-29T04:36:51.946Z,12.83
2019-05-29T04:39:28.411Z,13.12
2019-05-29T04:42:04.166Z,13.08
2019-05-29T04:44:38.957Z,13.10
2019-05-29T04:47:12.534Z,13.09
2019-05-29T04:49:46.501Z,13.02
2019-05-29T04:52:20.009Z,12.88
2019-05-29T04:54:53.476Z,12.91
2019-05-29T04:57:26.201Z,12.95
2019-05-29T04:59:58.615Z,12.92
2019-05-29T05:02:35.802Z,12.85
2019-05-29T05:05:09.745Z,12.90
2019-05-29T05:07:47.550Z,12.94
2019-05-29T05:10:46.098Z,13.00
2019-05-29T05:13:19.903Z,12.97
2019-05-29T05:15:53.575Z,12.93
2019-05-29T05:18:26.464Z,12.97
2019-05-29T05:21:00.861Z,12.90
2019-05-29T05:23:32.359Z,12.96
2019-05-29T05:26:05.939Z,12.86
2019-05-29T05:28:38.525Z,12.88
2019-05-29T05:31:14.275Z,12.89
2019-05-29T05:33:50.251Z,12.85
2019-05-29T05:36:26.249Z,12.81
2019-05-29T05:38:57.656Z,12.89
2019-05-29T05:41:30.818Z,12.89
2019-05-29T05:44:02.721Z,12.92
2019-05-29T05:46:39.400Z,12.86
2019-05-29T05:49:11.744Z,12.87
2019-05-29T05:51:45.675Z,12.91
2019-05-29T05:54:19.412Z,12.87
2019-05-29T05:56:53.926Z,12.94
2019-05-29T05:59:26.664Z,12.94
2019-05-29T06:02:00.034Z,13.01
2019-05-29T06:04:35.865Z,12.93
2019-05-29T06:07:08.824Z,12.93
2019-05-29T06:09:42.636Z,13.03
2019-05-29T06:12:15.068Z,13.02
2019-05-29T06:14:47.960Z,12.96
2019-05-29T06:17:22.129Z,13.03
2019-05-29T06:19:56.671Z,13.12
2019-05-29T06:22:29.854Z,13.18
2019-05-29T06:25:02.910Z,13.11
2019-05-29T06:27:37.050Z,13.02
2019-05-29T06:30:12.867Z,13.08
2019-05-29T06:32:46.454Z,13.06
2019-05-29T06:35:37.920Z,13.05
2019-05-29T06:38:10.736Z,13.01
2019-05-29T06:40:44.019Z,13.05
2019-05-29T06:43:31.695Z,13.14
2019-05-29T06:46:04.167Z,13.05
2019-05-29T06:48:46.656Z,13.04
2019-05-29T06:51:11.281Z,12.99
2019-05-29T06:53:45.390Z,13.00
2019-05-29T06:56:20.071Z,13.11
2019-05-29T06:58:54.132Z,13.28
2019-05-29T07:01:27.943Z,13.25
2019-05-29T07:04:11.967Z,13.23
2019-05-29T07:06:36.519Z,13.25
2019-05-29T07:09:09.866Z,13.10
2019-05-29T07:11:43.494Z,13.11
2019-05-29T07:14:16.763Z,13.08
2019-05-29T07:16:55.657Z,13.07
2019-05-29T07:19:29.353Z,13.05
2019-05-29T07:21:58.404Z,13.05
2019-05-29T07:24:34.578Z,13.01
2019-05-29T07:27:13.203Z,12.97
2019-05-29T07:29:45.235Z,13.04
2019-05-29T07:32:22.901Z,13.10
2019-05-29T07:35:03.685Z,13.13
2019-05-29T07:37:37.851Z,13.11
2019-05-29T07:40:14.419Z,13.07
2019-05-29T07:42:55.241Z,13.06
2019-05-29T07:45:37.957Z,13.15
2019-05-29T07:48:10.361Z,13.20
2019-05-29T07:50:46.697Z,13.15
2019-05-29T07:53:23.918Z,13.25
2019-05-29T07:55:56.970Z,13.30
2019-05-29T07:58:30.877Z,13.34
2019-05-29T08:01:12.829Z,13.49
2019-05-29T08:03:45.407Z,13.44
2019-05-29T08:06:19.982Z,13.50
2019-05-29T08:08:53.359Z,13.39
2019-05-29T08:11:26.974Z,13.48
2019-05-29T08:14:00.561Z,13.59
2019-05-29T08:16:32.300Z,13.53
2019-05-29T08:19:08.719Z,13.54
2019-05-29T08:21:48.499Z,13.46
2019-05-29T08:24:24.823Z,13.37
2019-05-29T08:26:56.598Z,13.40
2019-05-29T08:29:31.677Z,13.36
2019-05-29T08:32:04.389Z,13.28
2019-05-29T08:34:38.702Z,13.45
2019-05-29T08:37:12.446Z,13.41
2019-05-29T08:39:43.716Z,13.55
2019-05-29T08:42:23.221Z,13.42
2019-05-29T08:44:53.995Z,13.48
2019-05-29T08:47:28.496Z,13.36
2019-05-29T08:50:17.268Z,13.50
2019-05-29T08:52:35.796Z,13.62
2019-05-29T08:55:13.914Z,13.69
2019-05-29T08:57:48.440Z,13.60
2019-05-29T09:00:49.791Z,13.39
2019-05-29T09:03:19.440Z,13.30
2019-05-29T09:06:11.460Z,13.42
2019-05-29T09:08:55.332Z,13.28
2019-05-29T09:11:26.863Z,13.39
2019-05-29T09:13:59.581Z,13.42
2019-05-29T09:16:34.658Z,13.49
2019-05-29T09:19:08.304Z,13.42
2019-05-29T09:21:42.429Z,13.65
2019-05-29T09:24:19.369Z,13.45
2019-05-29T09:26:56.960Z,13.53
2019-05-29T09:29:32.416Z,13.63
2019-05-29T09:32:07.828Z,13.63
2019-05-29T09:34:39.772Z,13.69
2019-05-29T09:37:15.476Z,13.58
2019-05-29T09:39:49.793Z,13.64
2019-05-29T09:42:25.487Z,13.66
2019-05-29T09:44:58.931Z,13.78
2019-05-29T09:47:32.705Z,13.73
2019-05-29T09:50:08.800Z,13.66
2019-05-29T09:52:55.290Z,13.59
2019-05-29T09:55:39.983Z,13.41
2019-05-29T09:58:12.795Z,13.47
2019-05-29T10:00:47.174Z,13.38
2019-05-29T10:03:19.783Z,13.42
2019-05-29T10:05:55.920Z,13.30
2019-05-29T10:08:31.376Z,13.31
2019-05-29T10:11:11.360Z,13.27
2019-05-29T10:13:46.472Z,13.40
2019-05-29T10:16:22.356Z,13.21
2019-05-29T10:18:56.043Z,13.21
2019-05-29T10:21:39.953Z,13.29
2019-05-29T10:24:08.851Z,13.30
2019-05-29T10:26:43.119Z,13.29
2019-05-29T10:29:16.933Z,13.28
2019-05-29T10:31:53.425Z,13.27
2019-05-29T10:34:28.698Z,13.38
2019-05-29T10:37:00.604Z,13.46
2019-05-29T10:39:33.656Z,13.36
2019-05-29T10:42:13.719Z,13.42
2019-05-29T10:44:46.925Z,13.45
2019-05-29T10:47:18.708Z,13.39
2019-05-29T10:49:51.785Z,13.52
2019-05-29T10:52:33.423Z,13.55
2019-05-29T10:55:32.472Z,13.66
2019-05-29T10:58:06.073Z,13.72
2019-05-29T11:01:00.578Z,13.57
2019-05-29T11:03:33.579Z,13.59
2019-05-29T11:06:19.751Z,13.60
2019-05-29T11:08:52.249Z,13.60
2019-05-29T11:11:27.786Z,13.56
2019-05-29T11:14:00.153Z,13.77
2019-05-29T11:16:33.580Z,13.85
2019-05-29T11:19:06.359Z,13.86
2019-05-29T11:21:41.046Z,13.85
2019-05-29T11:24:16.814Z,13.78
2019-05-29T11:26:48.446Z,13.80
2019-05-29T11:29:22.435Z,13.73
2019-05-29T11:31:56.980Z,13.89
2019-05-29T11:34:29.401Z,13.84
2019-05-29T11:37:03.182Z,13.81
2019-05-29T11:39:37.440Z,13.77
2019-05-29T11:42:26.356Z,13.96
2019-05-29T11:44:50.859Z,14.00
2019-05-29T11:47:27.443Z,13.88
2019-05-29T11:50:18.600Z,13.85
2019-05-29T11:52:43.677Z,13.84
2019-05-29T11:55:33.852Z,13.92
2019-05-29T11:58:06.454Z,14.01
2019-05-29T12:00:39.703Z,13.90
2019-05-29T12:03:22.761Z,13.87
2019-05-29T12:05:57.592Z,13.83
2019-05-29T12:08:32.498Z,13.83
2019-05-29T12:11:07.204Z,13.87
2019-05-29T12:13:54.151Z,13.88
2019-05-29T12:16:38.207Z,13.90
2019-05-29T12:19:20.362Z,13.93
2019-05-29T12:21:56.515Z,13.85
2019-05-29T12:24:36.700Z,13.90
2019-05-29T12:27:09.550Z,13.94
2019-05-29T12:29:42.515Z,13.99
2019-05-29T12:32:22.292Z,13.98
2019-05-29T12:35:03.048Z,14.06
2019-05-29T12:37:45.243Z,13.91
2019-05-29T12:40:38.234Z,13.98
2019-05-29T12:43:25.958Z,13.91
2019-05-29T12:45:53.372Z,13.87
2019-05-29T12:48:28.286Z,13.95
2019-05-29T12:51:24.238Z,14.03
2019-05-29T12:53:58.040Z,14.04
2019-05-29T12:56:30.861Z,14.07
2019-05-29T12:59:04.700Z,14.28
2019-05-29T13:01:41.543Z,14.24
2019-05-29T13:04:18.777Z,14.18
2019-05-29T13:06:54.352Z,14.36
2019-05-29T13:09:33.160Z,14.43
2019-05-29T13:12:08.515Z,14.44
2019-05-29T13:14:40.071Z,14.47
2019-05-29T13:17:11.857Z,14.60
2019-05-29T13:19:49.492Z,14.49
2019-05-29T13:22:21.214Z,14.62
2019-05-29T13:24:59.287Z,14.64
2019-05-29T13:27:34.655Z,14.68
2019-05-29T13:30:13.121Z,14.68
2019-05-29T13:33:03.592Z,14.73
2019-05-29T13:35:50.086Z,14.71
2019-05-29T13:38:24.035Z,14.86
2019-05-29T13:41:00.475Z,14.93
2019-05-29T13:43:35.937Z,14.92
2019-05-29T13:46:09.160Z,14.97
2019-05-29T13:48:47.262Z,15.11
2019-05-29T13:51:25.405Z,15.08
2019-05-29T13:54:03.734Z,15.10
2019-05-29T13:56:32.987Z,15.13
2019-05-29T13:59:08.667Z,15.25
2019-05-29T14:01:42.269Z,15.17
2019-05-29T14:04:15.013Z,15.09
2019-05-29T14:06:47.908Z,15.15
2019-05-29T14:09:22.779Z,15.14
2019-05-29T14:11:57.049Z,15.11
2019-05-29T14:14:29.085Z,15.06
2019-05-29T14:17:04.466Z,15.05
2019-05-29T14:19:36.027Z,15.08
2019-05-29T14:22:09.290Z,15.07
2019-05-29T14:24:43.024Z,15.11
2019-05-29T14:27:14.969Z,15.12
2019-05-29T14:29:49.337Z,14.99
2019-05-29T14:32:21.221Z,15.00
2019-05-29T14:34:55.197Z,15.03
2019-05-29T14:37:28.527Z,15.01
2019-05-29T14:40:03.603Z,14.96
2019-05-29T14:42:35.348Z,15.03
2019-05-29T14:45:10.371Z,15.11
2019-05-29T14:47:47.882Z,14.97
2019-05-29T14:50:56.302Z,15.02
2019-05-29T14:53:27.559Z,14.95
2019-05-29T14:56:00.209Z,15.05
2019-05-29T14:58:34.854Z,15.08
2019-05-29T15:01:11.407Z,15.04
2019-05-29T15:03:45.331Z,15.06
2019-05-29T15:06:18.279Z,15.04
2019-05-29T15:08:51.326Z,15.01
2019-05-29T15:11:24.293Z,15.05
2019-05-29T15:13:57.264Z,15.05
2019-05-29T15:16:33.173Z,14.98
2019-05-29T15:19:06.891Z,15.10
2019-05-29T15:21:40.874Z,15.15
2019-05-29T15:24:15.904Z,14.99
2019-05-29T15:26:48.389Z,14.85
2019-05-29T15:29:24.119Z,14.76
2019-05-29T15:31:57.357Z,14.76
2019-05-29T15:34:30.631Z,14.62
2019-05-29T15:37:03.484Z,14.51
2019-05-29T15:39:37.922Z,14.56
2019-05-29T15:42:13.389Z,14.51
2019-05-29T15:44:50.021Z,14.51
2019-05-29T15:47:24.499Z,14.52
2019-05-29T15:49:59.834Z,14.45
2019-05-29T15:52:34.705Z,13.82
2019-05-29T15:55:27.372Z,14.33
2019-05-29T15:58:02.305Z,14.31
2019-05-29T16:00:40.053Z,14.26
2019-05-29T16:03:11.562Z,14.18
2019-05-29T16:05:50.047Z,14.11
2019-05-29T16:08:21.602Z,14.07
2019-05-29T16:10:57.547Z,13.95
2019-05-29T16:13:32.360Z,13.94
2019-05-29T16:16:03.580Z,13.89
2019-05-29T16:18:35.866Z,13.96
2019-05-29T16:21:23.266Z,13.92
2019-05-29T16:23:55.624Z,13.82
2019-05-29T16:26:30.268Z,13.77
2019-05-29T16:29:07.107Z,13.76
2019-05-29T16:31:41.460Z,13.70
2019-05-29T16:34:18.899Z,13.64
2019-05-29T16:36:53.399Z,13.61
2019-05-29T16:39:24.844Z,13.64
2019-05-29T16:41:57.810Z,13.69
2019-05-29T16:44:31.589Z,13.62
2019-05-29T16:47:05.674Z,13.62
2019-05-29T16:49:39.949Z,13.61
2019-05-29T16:52:14.884Z,13.55
2019-05-29T16:54:48.857Z,13.55
2019-05-29T16:57:23.238Z,13.51
2019-05-29T17:00:00.362Z,13.54
2019-05-29T17:02:33.757Z,13.59
2019-05-29T17:05:05.819Z,13.58
2019-05-29T17:07:42.015Z,13.61
2019-05-29T17:10:35.605Z,13.61
2019-05-29T17:13:09.870Z,13.58
2019-05-29T17:15:45.681Z,13.53
2019-05-29T17:18:20.490Z,13.56
2019-05-29T17:20:53.908Z,13.58
2019-05-29T17:23:27.061Z,13.61
2019-05-29T17:26:10.601Z,13.59
2019-05-29T17:28:37.889Z,13.52
2019-05-29T17:31:10.012Z,13.58
2019-05-29T17:33:43.831Z,13.60
2019-05-29T17:36:18.939Z,13.65
2019-05-29T17:38:55.496Z,13.62
2019-05-29T17:41:29.968Z,13.65
2019-05-29T17:44:06.467Z,13.59
2019-05-29T17:46:47.228Z,13.56
2019-05-29T17:49:30.962Z,13.62
2019-05-29T17:51:56.256Z,13.61
2019-05-29T17:54:27.794Z,13.65
2019-05-29T17:57:01.544Z,13.63
2019-05-29T17:59:36.089Z,13.16
2019-05-29T18:02:09.914Z,13.64
2019-05-29T18:04:43.214Z,13.65
2019-05-29T18:07:22.544Z,13.66
2019-05-29T18:09:55.198Z,13.62
2019-05-29T18:12:29.573Z,13.69
2019-05-29T18:15:10.036Z,13.63
2019-05-29T18:17:46.281Z,13.66
2019-05-29T18:20:35.749Z,13.61
2019-05-29T18:23:10.432Z,13.67
2019-05-29T18:25:47.639Z,13.70
2019-05-29T18:28:22.038Z,13.12
2019-05-29T18:31:09.837Z,13.60
2019-05-29T18:34:02.075Z,13.55
2019-05-29T18:36:36.286Z,13.55
2019-05-29T18:39:10.771Z,13.63
2019-05-29T18:41:43.497Z,13.55
2019-05-29T18:44:20.725Z,13.51
2019-05-29T18:46:55.564Z,13.51
2019-05-29T18:49:28.479Z,13.44
2019-05-29T18:52:02.627Z,13.46
2019-05-29T18:54:36.269Z,13.46
2019-05-29T18:57:15.587Z,13.45
2019-05-29T18:59:45.189Z,13.43
2019-05-29T19:02:18.900Z,13.40
2019-05-29T19:04:51.638Z,13.44
2019-05-29T19:07:27.717Z,13.42
2019-05-29T19:10:00.655Z,13.43
2019-05-29T19:12:33.484Z,13.46
2019-05-29T19:15:10.954Z,13.50
2019-05-29T19:17:49.303Z,13.48
2019-05-29T19:20:38.924Z,13.47
2019-05-29T19:23:12.585Z,13.50
2019-05-29T19:25:48.070Z,13.59
2019-05-29T19:28:35.600Z,13.52
2019-05-29T19:31:12.705Z,13.46
2019-05-29T19:33:48.921Z,13.60
2019-05-29T19:36:21.137Z,13.56
2019-05-29T19:38:55.631Z,13.54
2019-05-29T19:41:27.931Z,13.54
2019-05-29T19:44:02.392Z,13.56
2019-05-29T19:46:53.136Z,13.56
2019-05-29T19:49:16.184Z,13.51
2019-05-29T19:51:48.703Z,13.55
2019-05-29T19:54:21.595Z,13.54
2019-05-29T19:56:54.961Z,13.50
2019-05-29T19:59:27.952Z,13.58
2019-05-29T20:02:00.715Z,13.52
2019-05-29T20:04:32.713Z,13.54
2019-05-29T20:07:04.945Z,13.53
2019-05-29T20:09:42.108Z,13.56
2019-05-29T20:12:23.332Z,13.56
2019-05-29T20:15:02.263Z,13.51
2019-05-29T20:17:36.287Z,13.53
2019-05-29T20:20:10.714Z,13.46
2019-05-29T20:22:42.787Z,13.52
2019-05-29T20:25:34.960Z,13.50
2019-05-29T20:28:23.718Z,13.47
2019-05-29T20:31:12.011Z,13.49
2019-05-29T20:33:45.746Z,13.46
2019-05-29T20:36:19.792Z,13.49
2019-05-29T20:38:55.890Z,13.42
2019-05-29T20:41:28.621Z,13.41
2019-05-29T20:44:03.840Z,13.33
2019-05-29T20:46:36.870Z,13.43
2019-05-29T20:49:10.964Z,13.39
2019-05-29T20:51:46.442Z,13.37
2019-05-29T20:54:19.306Z,13.40
2019-05-29T20:56:54.539Z,13.36
2019-05-29T20:59:27.842Z,13.31
2019-05-29T21:02:02.130Z,13.36
2019-05-29T21:04:37.024Z,13.37
2019-05-29T21:07:10.043Z,13.31
2019-05-29T21:09:46.180Z,13.28
2019-05-29T21:12:20.214Z,13.28
2019-05-29T21:14:51.870Z,13.28
2019-05-29T21:17:27.323Z,13.25
2019-05-29T21:20:04.422Z,13.25
2019-05-29T21:22:36.903Z,13.15
2019-05-29T21:25:17.946Z,13.15
2019-05-29T21:27:51.332Z,13.11
2019-05-29T21:30:37.396Z,13.07
2019-05-29T21:33:14.998Z,13.02
2019-05-29T21:35:50.651Z,12.99
2019-05-29T21:38:25.931Z,12.96
2019-05-29T21:40:59.638Z,13.00
2019-05-29T21:43:33.656Z,12.94
2019-05-29T21:46:09.882Z,12.88
2019-05-29T21:49:17.580Z,12.78
2019-05-29T21:52:05.490Z,12.70
2019-05-29T21:54:39.263Z,12.57
2019-05-29T21:57:17.117Z,12.52
2019-05-29T21:59:51.185Z,12.50
2019-05-29T22:02:25.331Z,12.45
2019-05-29T22:04:59.004Z,12.35
2019-05-29T22:07:31.371Z,12.35
2019-05-29T22:10:06.190Z,12.33
2019-05-29T22:12:42.487Z,12.31
2019-05-29T22:15:35.299Z,12.24
2019-05-29T22:18:25.044Z,12.16
2019-05-29T22:21:14.969Z,12.09
2019-05-29T22:23:46.228Z,11.37
2019-05-29T22:26:22.203Z,12.14
2019-05-29T22:28:55.267Z,12.18
2019-05-29T22:31:29.385Z,12.16
2019-05-29T22:34:03.669Z,12.18
2019-05-29T22:36:40.852Z,12.12
2019-05-29T22:39:14.323Z,12.18
2019-05-29T22:41:48.159Z,12.13
2019-05-29T22:44:20.533Z,12.11
2019-05-29T22:46:53.674Z,11.11
2019-05-29T22:49:27.365Z,12.10
2019-05-29T22:52:02.502Z,12.04
2019-05-29T22:54:37.417Z,12.01
2019-05-29T22:57:11.384Z,11.98
2019-05-29T22:59:44.686Z,11.92
2019-05-29T23:02:21.771Z,11.93
2019-05-29T23:05:00.332Z,11.89
2019-05-29T23:07:36.155Z,11.85
2019-05-29T23:10:10.222Z,11.87
2019-05-29T23:12:52.828Z,11.91
2019-05-29T23:15:35.524Z,11.70
2019-05-29T23:18:09.954Z,11.90
2019-05-29T23:20:44.590Z,11.89
2019-05-29T23:23:21.281Z,11.89
2019-05-29T23:26:02.956Z,11.88
2019-05-29T23:28:34.610Z,11.96
2019-05-29T23:31:08.749Z,11.95
2019-05-29T23:33:42.628Z,12.02
2019-05-29T23:36:20.066Z,11.98
2019-05-29T23:38:55.095Z,11.94
2019-05-29T23:41:27.705Z,11.92
2019-05-29T23:44:03.742Z,11.95
2019-05-29T23:46:36.733Z,11.89
2019-05-29T23:49:09.950Z,11.94
2019-05-29T23:51:45.116Z,11.99
2019-05-29T23:54:19.823Z,11.95
2019-05-29T23:56:51.710Z,11.96
2019-05-29T23:59:27.928Z,11.94
